Terminal Aerodrome Forecast
Issued by NWS

Home | Current Version | Previous Version | Text Only | Print | Product List | Glossary On
Versions: 1 2 3 4 5 6 7 8 9 10 11 12 13 14 15 16 17 18
000
FTUS43 KGLD 131100
TAFMCK
TAF
KMCK 131131Z 1312/1412 02023G35KT P6SM -RA OVC040
     FM131800 36027G37KT 3SM -RASN OVC010
     FM140300 35016KT P6SM BKN050 OVC200=

USA.gov is the U.S. government's official web portal to all federal, state and local government web resources and services.